createdAt,value
2023-01-03T00:04:30.559Z,101662.81
2023-01-03T00:09:33.722Z,101666.88
2023-01-03T00:14:36.353Z,101672.91
2023-01-03T00:19:40.468Z,101670.88
2023-01-03T00:24:43.576Z,101668.06
2023-01-03T00:29:45.350Z,101674.69
2023-01-03T00:34:47.117Z,101678.88
2023-01-03T00:39:50.207Z,101682.00
2023-01-03T00:44:51.884Z,101686.13
2023-01-03T00:49:54.805Z,101696.56
2023-01-03T00:54:57.823Z,101706.03
2023-01-03T00:59:59.660Z,101708.72
2023-01-03T01:05:01.339Z,101720.63
2023-01-03T01:10:05.906Z,101733.56
2023-01-03T01:15:08.708Z,101740.22
2023-01-03T01:20:10.631Z,101752.13
2023-01-03T01:25:13.850Z,101749.50
2023-01-03T01:30:15.586Z,101748.56
2023-01-03T01:35:17.392Z,101768.47
2023-01-03T01:40:20.463Z,101764.06
2023-01-03T01:45:22.179Z,101760.53
2023-01-03T01:50:25.064Z,101782.69
2023-01-03T01:55:30.196Z,101780.84
2023-01-03T02:00:32.328Z,101792.13
2023-01-03T02:05:36.023Z,101797.00
2023-01-03T02:10:49.458Z,101789.34
2023-01-03T02:16:28.750Z,101799.72
2023-01-03T02:22:03.037Z,101796.94
2023-01-03T02:27:12.962Z,101795.75
2023-01-03T02:32:16.812Z,101808.59
2023-01-03T02:37:22.139Z,101819.50
2023-01-03T02:42:43.897Z,101822.00
2023-01-03T02:47:49.158Z,101822.44
2023-01-03T02:52:50.931Z,101822.19
2023-01-03T02:57:54.695Z,101822.00
2023-01-03T03:02:58.981Z,101828.78
2023-01-03T03:08:00.699Z,101835.53
2023-01-03T03:13:14.321Z,101844.00
2023-01-03T03:18:18.971Z,101850.91
2023-01-03T03:23:40.326Z,101852.03
2023-01-03T03:28:44.164Z,101851.97
2023-01-03T03:33:48.817Z,101858.75
2023-01-03T03:38:50.532Z,101856.66
2023-01-03T03:44:13.226Z,101857.41
2023-01-03T03:49:36.765Z,101847.59
2023-01-03T03:54:39.070Z,101868.47
2023-01-03T03:59:41.612Z,101866.50
2023-01-03T04:04:46.360Z,101876.09
2023-01-03T04:09:48.090Z,101881.78
2023-01-03T04:14:49.763Z,101889.94
2023-01-03T04:19:52.751Z,101889.44
2023-01-03T04:24:54.425Z,101894.88
2023-01-03T04:29:56.211Z,101895.00
2023-01-03T04:34:59.449Z,101888.72
2023-01-03T04:40:01.163Z,101890.97
2023-01-03T04:45:03.099Z,101892.53
2023-01-03T04:50:06.836Z,101895.84
2023-01-03T04:55:09.635Z,101906.81
2023-01-03T05:00:12.281Z,101907.53
2023-01-03T05:05:15.427Z,101915.06
2023-01-03T05:10:17.199Z,101923.72
2023-01-03T05:15:19.017Z,101930.47
2023-01-03T05:20:40.700Z,101930.38
2023-01-03T05:25:51.224Z,101940.00
2023-01-03T05:30:52.884Z,101940.06
2023-01-03T05:35:55.936Z,101941.25
2023-01-03T05:40:57.663Z,101932.03
2023-01-03T05:45:59.460Z,101928.69
2023-01-03T05:51:02.643Z,101936.22
2023-01-03T05:56:05.129Z,101939.63
2023-01-03T06:01:08.498Z,101941.47
2023-01-03T06:06:12.777Z,101944.31
2023-01-03T06:11:15.082Z,101951.28
2023-01-03T06:16:36.894Z,101956.03
2023-01-03T06:21:41.490Z,101968.88
2023-01-03T06:26:43.230Z,101970.53
2023-01-03T06:31:44.901Z,101970.66
2023-01-03T06:36:47.887Z,101972.22
2023-01-03T06:41:49.563Z,101971.34
2023-01-03T06:47:09.784Z,101972.22
2023-01-03T06:52:32.994Z,101986.03
2023-01-03T06:57:34.611Z,101990.41
2023-01-03T07:02:36.377Z,101998.97
2023-01-03T07:07:39.459Z,102009.84
2023-01-03T07:12:59.690Z,102018.06
2023-01-03T07:18:01.376Z,102025.38
2023-01-03T07:23:04.519Z,102026.72
2023-01-03T07:28:09.067Z,102021.59
2023-01-03T07:33:12.941Z,102037.81
2023-01-03T07:38:15.966Z,102049.53
2023-01-03T07:43:36.210Z,102051.22
2023-01-03T07:48:38.041Z,102052.84
2023-01-03T07:53:41.088Z,102061.06
2023-01-03T07:58:43.472Z,102057.16
2023-01-03T08:03:45.339Z,102060.78
2023-01-03T08:09:11.003Z,102072.22
2023-01-03T08:14:12.671Z,102082.75
2023-01-03T08:19:14.329Z,102083.91
2023-01-03T08:24:17.496Z,102085.00
2023-01-03T08:29:19.175Z,102086.94
2023-01-03T08:34:28.813Z,102085.78
2023-01-03T08:39:34.519Z,102088.69
2023-01-03T08:44:36.215Z,102083.41
2023-01-03T08:49:38.203Z,102084.63
2023-01-03T08:54:41.254Z,102094.59
2023-01-03T08:59:42.982Z,102104.25
2023-01-03T09:04:44.674Z,102102.06
2023-01-03T09:09:47.715Z,102108.22
2023-01-03T09:14:49.563Z,102116.88
2023-01-03T09:19:51.258Z,102123.06
2023-01-03T09:24:55.449Z,102112.75
2023-01-03T09:29:57.123Z,102127.38
2023-01-03T09:34:58.822Z,102130.31
2023-01-03T09:40:01.866Z,102128.75
2023-01-03T09:45:03.798Z,102130.59
2023-01-03T09:55:51.452Z,102140.13
2023-01-03T10:01:11.683Z,102145.97
2023-01-03T10:06:19.718Z,102135.97
2023-01-03T10:11:26.692Z,102139.91
2023-01-03T10:16:34.731Z,102135.31
2023-01-03T10:21:41.306Z,102122.03
2023-01-03T10:26:44.342Z,102114.91
2023-01-03T10:31:56.835Z,102108.66
2023-01-03T10:36:58.568Z,102107.91
2023-01-03T10:42:01.591Z,102110.28
2023-01-03T10:47:08.787Z,102106.41
2023-01-03T10:52:12.263Z,102102.41
2023-01-03T10:57:39.753Z,102095.06
2023-01-03T11:02:42.661Z,102097.50
2023-01-03T11:07:44.587Z,102090.53
2023-01-03T11:12:47.620Z,102095.13
2023-01-03T11:17:53.277Z,102094.28
2023-01-03T11:22:56.696Z,102100.03
2023-01-03T11:28:18.346Z,102089.19
2023-01-03T11:33:29.822Z,102090.34
2023-01-03T11:38:46.370Z,102083.31
2023-01-03T11:43:56.626Z,102081.22
2023-01-03T11:49:08.111Z,102069.84
2023-01-03T11:54:14.972Z,102071.19
2023-01-03T11:59:35.696Z,102054.13
2023-01-03T12:04:39.988Z,102054.91
2023-01-03T12:09:46.695Z,102057.09
2023-01-03T12:14:51.265Z,102037.22
2023-01-03T12:19:54.584Z,102038.47
2023-01-03T12:25:04.418Z,102045.69
2023-01-03T12:30:20.863Z,102043.53
2023-01-03T12:35:26.391Z,102037.19
2023-01-03T12:40:31.855Z,102027.03
2023-01-03T12:45:42.080Z,102020.34
2023-01-03T12:50:45.748Z,102029.97
2023-01-03T12:55:55.439Z,102037.31
2023-01-03T13:00:59.682Z,102026.91
2023-01-03T13:06:03.150Z,102024.22
2023-01-03T13:11:06.742Z,102016.31
2023-01-03T13:16:45.111Z,102008.72
2023-01-03T13:21:50.695Z,101999.53
2023-01-03T13:27:32.014Z,101994.56
2023-01-03T13:32:38.503Z,101997.75
2023-01-03T13:37:43.315Z,101988.78
2023-01-03T13:42:45.019Z,101996.63
2023-01-03T13:47:48.862Z,101996.91
2023-01-03T13:52:58.353Z,101990.97
2023-01-03T13:58:00.114Z,101993.69
2023-01-03T14:03:26.299Z,101996.16
2023-01-03T14:08:35.580Z,101995.66
2023-01-03T14:13:40.808Z,101993.94
2023-01-03T14:18:46.837Z,101988.56
2023-01-03T14:23:59.647Z,101988.19
2023-01-03T14:29:02.166Z,101991.50
2023-01-03T14:34:05.808Z,101984.75
2023-01-03T14:39:10.885Z,102001.56
2023-01-03T14:44:15.027Z,101999.19
2023-01-03T14:49:19.984Z,102011.16
2023-01-03T14:54:22.809Z,102002.28
2023-01-03T14:59:24.536Z,102004.84
2023-01-03T15:04:27.609Z,102003.13
2023-01-03T15:09:32.530Z,102002.59
2023-01-03T15:14:35.511Z,102001.56
2023-01-03T15:19:39.438Z,102011.25
2023-01-03T15:24:43.391Z,102003.31
2023-01-03T15:29:45.381Z,102013.72
2023-01-03T15:34:49.365Z,102021.47
2023-01-03T15:39:52.122Z,102018.78
2023-01-03T15:44:53.818Z,102024.94
2023-01-03T15:49:58.205Z,102025.59
2023-01-03T15:54:59.913Z,102026.47
2023-01-03T16:00:02.318Z,102027.59
2023-01-03T16:05:10.237Z,102022.16
2023-01-03T16:10:12.088Z,102017.47
2023-01-03T16:15:16.941Z,102018.28
2023-01-03T16:20:20.164Z,102013.88
2023-01-03T16:25:22.173Z,102013.25
2023-01-03T16:30:24.358Z,102015.78
2023-01-03T16:35:27.576Z,102004.44
2023-01-03T16:40:29.511Z,102004.31
2023-01-03T16:45:31.249Z,101994.00
2023-01-03T16:50:36.464Z,101990.66
2023-01-03T16:55:39.438Z,101995.00
2023-01-03T17:00:41.158Z,101989.47
2023-01-03T17:05:44.232Z,101987.03
2023-01-03T17:10:46.803Z,101982.66
2023-01-03T17:15:48.504Z,101988.59
2023-01-03T17:20:54.095Z,101982.91
2023-01-03T17:25:55.952Z,101973.75
2023-01-03T17:30:57.765Z,101970.84
2023-01-03T17:36:01.208Z,101971.59
2023-01-03T17:41:02.894Z,101963.63
2023-01-03T17:46:29.262Z,101978.94
2023-01-03T17:51:32.317Z,101983.03
2023-01-03T17:56:34.043Z,101977.16
2023-01-03T18:01:35.889Z,101970.19
2023-01-03T18:06:39.350Z,101970.00
2023-01-03T18:11:41.569Z,101971.91
2023-01-03T18:16:43.768Z,101980.28
2023-01-03T18:21:47.110Z,101980.13
2023-01-03T18:26:50.211Z,101981.03
2023-01-03T18:31:55.350Z,101968.13
2023-01-03T18:36:58.437Z,101961.00
2023-01-03T18:42:20.687Z,101969.75
2023-01-03T18:47:22.401Z,101953.41
2023-01-03T18:52:26.079Z,101952.69
2023-01-03T18:57:27.837Z,101950.16
2023-01-03T19:02:30.410Z,101958.03
2023-01-03T19:07:34.665Z,101952.75
2023-01-03T19:12:37.031Z,101953.41
2023-01-03T19:17:39.038Z,101958.63
2023-01-03T19:22:42.783Z,101954.34
2023-01-03T19:27:45.422Z,101961.28
2023-01-03T19:32:52.266Z,101955.31
2023-01-03T19:37:55.327Z,101941.44
2023-01-03T19:42:57.709Z,101934.56
2023-01-03T19:48:00.941Z,101923.78
2023-01-03T19:53:04.167Z,101907.00
2023-01-03T19:58:12.298Z,101909.81
2023-01-03T20:03:20.677Z,101905.41
2023-01-03T20:08:23.917Z,101897.38
2023-01-03T20:13:26.507Z,101894.72
2023-01-03T20:18:29.188Z,101890.34
2023-01-03T20:23:34.601Z,101891.84
2023-01-03T20:28:36.389Z,101884.50
2023-01-03T20:33:38.200Z,101882.66
2023-01-03T20:38:41.512Z,101874.81
2023-01-03T20:43:43.645Z,101879.97
2023-01-03T20:48:46.423Z,101883.28
2023-01-03T20:53:54.354Z,101871.00
2023-01-03T20:58:58.202Z,101861.34
2023-01-03T21:04:00.098Z,101852.53
2023-01-03T21:09:03.497Z,101855.69
2023-01-03T21:14:05.417Z,101853.72
2023-01-03T21:19:08.440Z,101862.38
2023-01-03T21:24:11.691Z,101849.25
2023-01-03T21:29:13.571Z,101839.66
2023-01-03T21:34:16.445Z,101833.41
2023-01-03T21:39:19.619Z,101823.78
2023-01-03T21:44:21.496Z,101823.38
2023-01-03T21:49:23.503Z,101824.09
2023-01-03T21:54:26.540Z,101809.47
2023-01-03T21:59:28.252Z,101801.69
2023-01-03T22:04:30.033Z,101804.97
2023-01-03T22:09:51.457Z,101783.34
2023-01-03T22:14:53.161Z,101778.13
2023-01-03T22:19:54.799Z,101781.50
2023-01-03T22:24:57.811Z,101777.13
2023-01-03T22:29:59.500Z,101756.44
2023-01-03T22:35:01.203Z,101751.34
2023-01-03T22:40:04.791Z,101760.84
2023-01-03T22:45:07.318Z,101757.47
2023-01-03T22:50:09.672Z,101752.53
2023-01-03T22:55:12.694Z,101742.19
2023-01-03T23:00:14.807Z,101740.59
2023-01-03T23:05:16.773Z,101736.19
2023-01-03T23:10:19.839Z,101744.22
2023-01-03T23:15:21.542Z,101721.91
2023-01-03T23:20:24.103Z,101706.50
2023-01-03T23:25:27.184Z,101692.78
2023-01-03T23:30:29.015Z,101691.94
2023-01-03T23:35:30.747Z,101684.16
2023-01-03T23:40:33.801Z,101682.22
2023-01-03T23:45:35.529Z,101676.31
2023-01-03T23:50:37.297Z,101659.19
2023-01-03T23:55:40.320Z,101660.00
